Time;durP1;ratioP1;P1;durP2;ratioP2;P2;SDS_P1;SDS_P2;PMS_P1;PMS_P2;Temp;Humidity;BMP_temperature;BMP_pressure;BME280_temperature;BME280_humidity;BME280_pressure;Samples;Min_cycle;Max_cycle;Signal;HPM_P1;HPM_P2
2023/05/06 00:00:00;;;;;;;2.53;2.33;;;;;;;;;;5094527;28;20047;-63
2023/05/06 00:02:28;;;;;;;2.85;2.50;;;;;;;;;;5094152;28;20031;-64
2023/05/06 00:04:54;;;;;;;2.83;2.63;;;;;;;;;;5094440;28;20059;-64
2023/05/06 00:07:20;;;;;;;2.88;2.50;;;;;;;;;;5093172;28;20429;-63
2023/05/06 00:09:45;;;;;;;2.67;2.47;;;;;;;;;;5094288;28;20023;-66
2023/05/06 00:12:11;;;;;;;2.72;2.53;;;;;;;;;;5093881;28;20032;-64
2023/05/06 00:14:36;;;;;;;2.50;2.28;;;;;;;;;;5093968;28;20107;-63
2023/05/06 00:17:02;;;;;;;2.60;2.40;;;;;;;;;;5093867;28;20020;-63
2023/05/06 00:19:27;;;;;;;2.55;2.35;;;;;;;;;;5093786;28;20383;-65
2023/05/06 00:21:54;;;;;;;2.67;2.47;;;;;;;;;;5093740;28;20051;-64
2023/05/06 00:24:20;;;;;;;2.75;2.55;;;;;;;;;;5094009;28;20028;-63
2023/05/06 00:26:45;;;;;;;3.67;2.50;;;;;;;;;;5093591;28;20020;-64
2023/05/06 00:29:11;;;;;;;2.90;2.60;;;;;;;;;;5093617;28;20039;-64
2023/05/06 00:31:36;;;;;;;2.53;2.30;;;;;;;;;;5093382;28;20036;-63
2023/05/06 00:34:02;;;;;;;2.78;2.58;;;;;;;;;;5093599;28;20055;-64
2023/05/06 00:36:27;;;;;;;2.70;2.50;;;;;;;;;;5093244;28;20096;-63
2023/05/06 00:38:53;;;;;;;2.63;2.42;;;;;;;;;;5093528;28;20039;-64
2023/05/06 00:41:18;;;;;;;2.80;2.60;;;;;;;;;;5093318;28;20020;-63
2023/05/06 00:43:44;;;;;;;3.15;2.28;;;;;;;;;;5093774;28;20035;-63
2023/05/06 00:46:10;;;;;;;2.58;2.38;;;;;;;;;;5093576;28;20028;-64
2023/05/06 00:48:36;;;;;;;3.50;2.67;;;;;;;;;;5093612;28;20103;-64
2023/05/06 00:51:02;;;;;;;2.58;2.30;;;;;;;;;;5093558;28;20027;-63
2023/05/06 00:53:28;;;;;;;3.03;2.83;;;;;;;;;;5093171;28;20471;-63
2023/05/06 00:55:53;;;;;;;2.80;2.60;;;;;;;;;;5092163;28;20031;-65
2023/05/06 00:58:19;;;;;;;2.60;2.40;;;;;;;;;;5093148;28;20417;-63
2023/05/06 01:00:45;;;;;;;2.63;2.42;;;;;;;;;;5093013;28;20566;-62
2023/05/06 01:03:10;;;;;;;3.20;2.90;;;;;;;;;;5092953;28;20063;-64
2023/05/06 01:06:03;;;;;;;2.53;2.33;;;;;;;;;;5092899;28;20078;-64
2023/05/06 01:08:28;;;;;;;2.40;2.20;;;;;;;;;;5091707;28;20035;-63
2023/05/06 01:11:15;;;;;;;2.80;2.60;;;;;;;;;;5092864;28;20413;-63
2023/05/06 01:14:19;;;;;;;2.50;2.30;;;;;;;;;;5092768;28;20023;-63
2023/05/06 01:16:51;;;;;;;3.55;2.55;;;;;;;;;;5070153;28;20056;-63
2023/05/06 01:19:45;;;;;;;3.30;3.00;;;;;;;;;;5069774;28;20246;-64
2023/05/06 01:22:12;;;;;;;2.85;2.58;;;;;;;;;;5085735;28;20040;-63
2023/05/06 01:24:40;;;;;;;2.70;2.50;;;;;;;;;;5092670;28;20524;-63
2023/05/06 01:27:06;;;;;;;2.45;2.25;;;;;;;;;;5092728;28;20027;-63
2023/05/06 01:29:34;;;;;;;3.22;2.53;;;;;;;;;;5092684;28;20531;-64
2023/05/06 01:32:27;;;;;;;4.32;2.40;;;;;;;;;;5092606;28;20510;-63
2023/05/06 01:35:05;;;;;;;2.70;2.50;;;;;;;;;;5092190;28;20036;-64
2023/05/06 01:38:02;;;;;;;2.53;2.33;;;;;;;;;;5092425;28;20442;-64
2023/05/06 01:40:30;;;;;;;3.00;2.50;;;;;;;;;;5092824;28;20028;-64
2023/05/06 01:42:56;;;;;;;2.65;2.40;;;;;;;;;;5091214;28;20028;-63
2023/05/06 01:45:26;;;;;;;2.78;2.40;;;;;;;;;;5092537;28;20032;-64
2023/05/06 01:47:52;;;;;;;2.80;2.60;;;;;;;;;;5092449;28;20016;-64
2023/05/06 01:50:18;;;;;;;2.70;2.50;;;;;;;;;;5092382;28;20073;-64
2023/05/06 01:52:43;;;;;;;2.70;2.50;;;;;;;;;;5092603;28;20028;-64
2023/05/06 01:55:09;;;;;;;2.53;2.33;;;;;;;;;;5092700;28;20176;-63
2023/05/06 01:57:35;;;;;;;2.90;2.70;;;;;;;;;;5092459;28;20028;-63
2023/05/06 02:00:00;;;;;;;2.70;2.50;;;;;;;;;;5092669;28;20031;-63
2023/05/06 02:02:26;;;;;;;2.80;2.53;;;;;;;;;;5092575;28;20039;-63
2023/05/06 02:04:52;;;;;;;3.17;2.38;;;;;;;;;;5092373;28;20028;-64
2023/05/06 02:07:17;;;;;;;2.28;2.13;;;;;;;;;;5092260;28;20028;-64
2023/05/06 02:09:43;;;;;;;2.67;2.47;;;;;;;;;;5092330;28;20105;-64
2023/05/06 02:12:08;;;;;;;3.53;2.50;;;;;;;;;;5091249;28;20028;-63
2023/05/06 02:14:34;;;;;;;3.80;2.40;;;;;;;;;;5092503;28;20032;-63
2023/05/06 02:17:05;;;;;;;2.50;2.30;;;;;;;;;;5092408;28;20467;-65
2023/05/06 02:19:31;;;;;;;3.33;2.60;;;;;;;;;;5092167;28;20028;-64
2023/05/06 02:21:56;;;;;;;2.60;2.40;;;;;;;;;;5092427;28;20073;-63
2023/05/06 02:24:22;;;;;;;3.35;2.50;;;;;;;;;;5092111;28;20375;-64
2023/05/06 02:26:48;;;;;;;2.60;2.40;;;;;;;;;;5092386;28;20032;-63
2023/05/06 02:29:13;;;;;;;3.10;2.80;;;;;;;;;;5092120;28;20429;-65
2023/05/06 02:31:39;;;;;;;2.70;2.50;;;;;;;;;;5094819;28;20468;-63
2023/05/06 02:34:04;;;;;;;2.65;2.45;;;;;;;;;;5095936;28;20038;-63
2023/05/06 02:36:32;;;;;;;2.80;2.60;;;;;;;;;;5095647;28;20494;-64
2023/05/06 02:38:57;;;;;;;2.80;2.60;;;;;;;;;;5096104;28;20092;-63
2023/05/06 02:41:23;;;;;;;2.95;2.75;;;;;;;;;;5095688;28;20500;-63
2023/05/06 02:43:48;;;;;;;2.65;2.30;;;;;;;;;;5096012;28;20028;-63
2023/05/06 02:46:14;;;;;;;2.80;2.60;;;;;;;;;;5095885;28;20479;-64
2023/05/06 02:48:40;;;;;;;2.58;2.38;;;;;;;;;;5095578;28;20546;-63
2023/05/06 02:51:06;;;;;;;3.90;2.78;;;;;;;;;;5095462;28;20031;-63
2023/05/06 02:53:31;;;;;;;3.13;2.55;;;;;;;;;;5095340;28;20028;-63
2023/05/06 02:55:57;;;;;;;3.10;2.80;;;;;;;;;;5095412;28;20111;-63
2023/05/06 02:58:22;;;;;;;2.65;2.45;;;;;;;;;;5095359;28;20107;-63
2023/05/06 03:00:48;;;;;;;2.90;2.70;;;;;;;;;;5095637;28;20107;-65
2023/05/06 03:03:13;;;;;;;3.28;2.65;;;;;;;;;;5095245;28;20395;-64
2023/05/06 03:05:39;;;;;;;3.10;2.38;;;;;;;;;;5095516;28;20030;-64
2023/05/06 03:08:04;;;;;;;2.50;2.35;;;;;;;;;;5095273;28;20024;-64
2023/05/06 03:10:30;;;;;;;2.75;2.47;;;;;;;;;;5095163;28;20067;-63
2023/05/06 03:12:55;;;;;;;2.70;2.40;;;;;;;;;;5095049;28;20032;-64
2023/05/06 03:15:21;;;;;;;2.70;2.50;;;;;;;;;;5095122;28;20071;-64
2023/05/06 03:17:46;;;;;;;2.65;2.45;;;;;;;;;;5095420;28;20058;-63
2023/05/06 03:20:12;;;;;;;2.75;2.55;;;;;;;;;;5094934;28;20062;-63
2023/05/06 03:22:38;;;;;;;2.70;2.50;;;;;;;;;;5094978;28;20073;-64
2023/05/06 03:25:04;;;;;;;4.28;2.53;;;;;;;;;;5095175;28;20107;-63
2023/05/06 03:27:29;;;;;;;2.85;2.38;;;;;;;;;;5095169;28;20039;-63
2023/05/06 03:29:55;;;;;;;2.63;2.42;;;;;;;;;;5095056;28;20103;-63
2023/05/06 03:32:20;;;;;;;2.65;2.45;;;;;;;;;;5094721;28;20464;-63
2023/05/06 03:34:46;;;;;;;2.75;2.55;;;;;;;;;;5094659;28;20020;-63
2023/05/06 03:37:11;;;;;;;2.80;2.60;;;;;;;;;;5093478;28;20082;-63
2023/05/06 03:39:37;;;;;;;2.95;2.65;;;;;;;;;;5094916;28;20051;-64
2023/05/06 03:42:02;;;;;;;2.50;2.30;;;;;;;;;;5094267;28;20024;-63
2023/05/06 03:44:28;;;;;;;4.35;2.65;;;;;;;;;;5094441;28;20070;-63
2023/05/06 03:46:53;;;;;;;2.40;2.20;;;;;;;;;;5094519;28;20028;-64
2023/05/06 03:49:19;;;;;;;3.20;2.38;;;;;;;;;;5094710;28;20034;-64
2023/05/06 03:51:45;;;;;;;2.65;2.45;;;;;;;;;;5094377;28;20036;-63
2023/05/06 03:54:10;;;;;;;2.92;2.65;;;;;;;;;;5094345;28;20024;-63
2023/05/06 03:56:36;;;;;;;3.10;2.25;;;;;;;;;;5094643;28;20455;-64
2023/05/06 03:59:02;;;;;;;2.45;2.30;;;;;;;;;;5094214;28;20028;-63
2023/05/06 04:01:28;;;;;;;2.42;2.28;;;;;;;;;;5094488;28;20032;-62
2023/05/06 04:03:53;;;;;;;2.80;2.58;;;;;;;;;;5094213;28;20391;-63
2023/05/06 04:06:19;;;;;;;2.55;2.35;;;;;;;;;;5093006;28;20078;-63
2023/05/06 04:08:44;;;;;;;2.63;2.42;;;;;;;;;;5094378;28;20027;-63
2023/05/06 04:11:10;;;;;;;2.65;2.30;;;;;;;;;;5093943;28;20024;-64
2023/05/06 04:13:36;;;;;;;2.72;2.50;;;;;;;;;;5094008;28;20032;-64
2023/05/06 04:16:02;;;;;;;2.30;2.13;;;;;;;;;;5093896;28;20028;-63
2023/05/06 04:18:28;;;;;;;2.67;2.47;;;;;;;;;;5093649;28;20020;-64
2023/05/06 04:20:54;;;;;;;2.47;2.28;;;;;;;;;;5093840;28;20099;-64
2023/05/06 04:23:20;;;;;;;2.45;2.25;;;;;;;;;;5093828;28;20032;-64
2023/05/06 04:25:47;;;;;;;2.78;2.58;;;;;;;;;;5093775;28;20032;-63
2023/05/06 04:28:17;;;;;;;3.17;2.63;;;;;;;;;;5093904;28;20020;-64
2023/05/06 04:30:46;;;;;;;2.70;2.50;;;;;;;;;;5093810;28;20048;-64
2023/05/06 04:33:12;;;;;;;2.95;2.67;;;;;;;;;;5093482;28;20123;-64
2023/05/06 04:35:38;;;;;;;2.67;2.47;;;;;;;;;;5093551;28;20103;-64
2023/05/06 04:38:04;;;;;;;5.18;2.58;;;;;;;;;;5093302;28;20093;-63
2023/05/06 04:40:30;;;;;;;2.50;2.30;;;;;;;;;;5092278;28;20080;-64
2023/05/06 04:42:56;;;;;;;2.70;2.50;;;;;;;;;;5093422;28;20024;-63
2023/05/06 04:45:23;;;;;;;2.72;2.53;;;;;;;;;;5093380;28;20031;-63
2023/05/06 04:47:48;;;;;;;2.50;2.30;;;;;;;;;;5093263;28;20169;-64
2023/05/06 04:50:14;;;;;;;3.10;2.60;;;;;;;;;;5093260;28;20062;-63
2023/05/06 04:52:39;;;;;;;2.97;2.40;;;;;;;;;;5093196;28;20032;-63
2023/05/06 04:55:05;;;;;;;2.95;2.60;;;;;;;;;;5092802;28;20471;-64
2023/05/06 04:57:31;;;;;;;2.80;2.60;;;;;;;;;;5093131;28;20034;-64
2023/05/06 04:59:57;;;;;;;2.65;2.45;;;;;;;;;;5093402;28;20023;-63
2023/05/06 05:02:22;;;;;;;2.90;2.38;;;;;;;;;;5093072;28;20028;-64
2023/05/06 05:04:48;;;;;;;2.60;2.40;;;;;;;;;;5093017;28;20016;-64
2023/05/06 05:07:14;;;;;;;2.67;2.47;;;;;;;;;;5092920;28;20065;-63
2023/05/06 05:09:39;;;;;;;2.55;2.33;;;;;;;;;;5092980;28;20023;-63
2023/05/06 05:12:05;;;;;;;2.75;2.55;;;;;;;;;;5092769;28;20115;-63
2023/05/06 05:14:30;;;;;;;3.42;2.65;;;;;;;;;;5093252;28;20063;-63
2023/05/06 05:16:56;;;;;;;3.10;2.50;;;;;;;;;;5092832;28;20048;-63
2023/05/06 05:19:22;;;;;;;2.63;2.42;;;;;;;;;;5092927;28;20016;-63
2023/05/06 05:21:48;;;;;;;2.42;2.22;;;;;;;;;;5092854;28;20032;-63
2023/05/06 05:24:13;;;;;;;2.40;2.20;;;;;;;;;;5092690;28;20491;-63
2023/05/06 05:26:39;;;;;;;2.60;2.40;;;;;;;;;;5092679;28;20032;-63
2023/05/06 05:29:05;;;;;;;2.65;2.40;;;;;;;;;;5092959;28;20028;-63
2023/05/06 05:31:31;;;;;;;2.92;2.72;;;;;;;;;;5092484;28;20024;-63
2023/05/06 05:33:56;;;;;;;2.53;2.33;;;;;;;;;;5092609;28;20026;-64
2023/05/06 05:36:22;;;;;;;3.00;2.80;;;;;;;;;;5092448;28;20024;-64
2023/05/06 05:38:48;;;;;;;2.70;2.50;;;;;;;;;;5092521;28;20035;-64
2023/05/06 05:41:15;;;;;;;2.72;2.50;;;;;;;;;;5092372;28;20119;-64
2023/05/06 05:43:40;;;;;;;2.60;2.40;;;;;;;;;;5092514;28;20028;-64
2023/05/06 05:46:06;;;;;;;2.67;2.47;;;;;;;;;;5092671;28;20074;-64
2023/05/06 05:48:32;;;;;;;2.70;2.50;;;;;;;;;;5092422;28;20024;-64
2023/05/06 05:51:00;;;;;;;2.70;2.50;;;;;;;;;;5092299;28;20028;-64
2023/05/06 05:53:25;;;;;;;2.72;2.53;;;;;;;;;;5092293;28;20077;-64
2023/05/06 05:55:51;;;;;;;2.60;2.40;;;;;;;;;;5092513;28;20036;-64
2023/05/06 05:58:16;;;;;;;2.60;2.40;;;;;;;;;;5092390;28;20072;-64
2023/05/06 06:00:42;;;;;;;3.83;2.80;;;;;;;;;;5092412;28;20032;-64
2023/05/06 06:03:07;;;;;;;2.70;2.50;;;;;;;;;;5092349;28;20035;-64
2023/05/06 06:05:33;;;;;;;2.58;2.38;;;;;;;;;;5095077;28;20016;-63
2023/05/06 06:07:59;;;;;;;2.80;2.60;;;;;;;;;;5096365;28;20043;-63
2023/05/06 06:10:24;;;;;;;3.22;2.20;;;;;;;;;;5095346;28;20016;-64
2023/05/06 06:12:50;;;;;;;2.70;2.50;;;;;;;;;;5096127;28;20028;-63
2023/05/06 06:15:16;;;;;;;2.88;2.67;;;;;;;;;;5096522;28;20401;-63
2023/05/06 06:17:44;;;;;;;2.67;2.47;;;;;;;;;;5096313;28;20482;-63
2023/05/06 06:20:10;;;;;;;2.30;2.10;;;;;;;;;;5096182;28;20468;-63
2023/05/06 06:22:36;;;;;;;2.55;2.35;;;;;;;;;;5096476;28;20417;-63
2023/05/06 06:25:02;;;;;;;2.78;2.58;;;;;;;;;;5096134;28;20086;-64
2023/05/06 06:27:27;;;;;;;2.75;2.55;;;;;;;;;;5096357;28;20036;-64
2023/05/06 06:29:53;;;;;;;2.55;2.30;;;;;;;;;;5094738;28;20501;-64
2023/05/06 06:32:18;;;;;;;2.90;2.70;;;;;;;;;;5095862;28;20042;-64
2023/05/06 06:34:44;;;;;;;2.53;2.33;;;;;;;;;;5096187;28;20048;-64
2023/05/06 06:37:11;;;;;;;2.60;2.40;;;;;;;;;;5095911;28;20399;-63
2023/05/06 06:39:37;;;;;;;5.03;2.50;;;;;;;;;;5096058;28;20058;-63
2023/05/06 06:42:03;;;;;;;2.55;2.35;;;;;;;;;;5096148;28;20495;-63
2023/05/06 06:44:29;;;;;;;2.70;2.50;;;;;;;;;;5095660;28;20494;-63
2023/05/06 06:46:55;;;;;;;3.47;2.60;;;;;;;;;;5095691;28;20103;-64
2023/05/06 06:49:20;;;;;;;2.58;2.38;;;;;;;;;;5095698;28;20481;-63
2023/05/06 06:51:46;;;;;;;2.58;2.40;;;;;;;;;;5095573;28;20024;-62
2023/05/06 06:54:11;;;;;;;2.30;2.20;;;;;;;;;;5095841;28;20478;-62
2023/05/06 06:56:37;;;;;;;3.03;2.70;;;;;;;;;;5094200;28;20028;-62
2023/05/06 06:59:03;;;;;;;2.50;2.30;;;;;;;;;;5095759;28;20476;-62
2023/05/06 07:01:28;;;;;;;3.00;2.60;;;;;;;;;;5095650;28;20501;-62
2023/05/06 07:03:54;;;;;;;2.90;2.70;;;;;;;;;;5093529;28;20103;-62
2023/05/06 07:06:19;;;;;;;2.60;2.40;;;;;;;;;;5095015;28;20107;-61
2023/05/06 07:08:45;;;;;;;2.97;2.58;;;;;;;;;;5094957;28;20116;-63
2023/05/06 07:11:13;;;;;;;2.72;2.47;;;;;;;;;;5093408;28;20353;-63
2023/05/06 07:13:38;;;;;;;2.25;2.15;;;;;;;;;;5092028;28;20028;-62
2023/05/06 07:16:04;;;;;;;2.20;2.10;;;;;;;;;;5092688;28;20549;-62
2023/05/06 07:18:30;;;;;;;2.90;2.70;;;;;;;;;;5094525;28;20024;-62
2023/05/06 07:20:55;;;;;;;2.22;2.10;;;;;;;;;;5094606;28;20016;-62
2023/05/06 07:23:21;;;;;;;2.67;2.40;;;;;;;;;;5094424;28;20078;-62
2023/05/06 07:25:47;;;;;;;2.38;2.17;;;;;;;;;;5093460;28;20032;-62
2023/05/06 07:28:12;;;;;;;2.50;2.30;;;;;;;;;;5094527;28;20013;-62
2023/05/06 07:30:38;;;;;;;2.95;2.50;;;;;;;;;;5094777;28;20116;-62
2023/05/06 07:33:04;;;;;;;2.80;2.60;;;;;;;;;;5094242;28;20080;-62
2023/05/06 07:35:29;;;;;;;2.60;2.40;;;;;;;;;;5089308;28;20028;-64
2023/05/06 07:37:55;;;;;;;2.60;2.40;;;;;;;;;;5092080;28;20076;-64
2023/05/06 07:40:21;;;;;;;3.03;2.50;;;;;;;;;;5090251;28;20522;-64
2023/05/06 07:42:46;;;;;;;3.10;2.80;;;;;;;;;;5093354;28;20464;-65
2023/05/06 07:45:12;;;;;;;2.03;1.92;;;;;;;;;;5092338;28;20031;-64
2023/05/06 07:47:37;;;;;;;2.75;2.55;;;;;;;;;;5092701;28;20027;-65
2023/05/06 07:50:05;;;;;;;2.42;2.22;;;;;;;;;;5093830;28;20032;-63
2023/05/06 07:52:31;;;;;;;2.30;2.10;;;;;;;;;;5094361;28;20032;-64
2023/05/06 07:54:56;;;;;;;2.75;2.55;;;;;;;;;;5094375;28;20043;-64
2023/05/06 07:57:22;;;;;;;2.60;2.40;;;;;;;;;;5094309;28;20028;-64
2023/05/06 07:59:50;;;;;;;2.53;2.33;;;;;;;;;;5094163;28;20067;-65
2023/05/06 08:02:16;;;;;;;2.70;2.50;;;;;;;;;;5094526;28;20043;-64
2023/05/06 08:04:41;;;;;;;2.40;2.20;;;;;;;;;;5094100;28;20361;-65
2023/05/06 08:07:07;;;;;;;2.35;2.25;;;;;;;;;;5094174;28;20081;-62
2023/05/06 08:09:33;;;;;;;4.65;2.17;;;;;;;;;;5092415;28;20681;-63
2023/05/06 08:11:58;;;;;;;2.33;2.13;;;;;;;;;;5090530;28;20390;-64
2023/05/06 08:14:27;;;;;;;4.88;2.38;;;;;;;;;;5090503;28;20035;-63
2023/05/06 08:16:53;;;;;;;6.88;2.50;;;;;;;;;;5093835;28;20020;-63
2023/05/06 08:19:20;;;;;;;4.43;2.05;;;;;;;;;;5093621;28;20077;-63
2023/05/06 08:21:47;;;;;;;2.22;2.00;;;;;;;;;;5093848;28;20028;-64
2023/05/06 08:24:13;;;;;;;2.17;2.03;;;;;;;;;;5093542;28;20024;-63
2023/05/06 08:26:39;;;;;;;2.58;2.38;;;;;;;;;;5093162;28;20103;-64
2023/05/06 08:29:06;;;;;;;3.55;2.33;;;;;;;;;;5089953;28;20021;-64
2023/05/06 08:31:31;;;;;;;2.50;2.30;;;;;;;;;;5092059;28;20523;-62
2023/05/06 08:33:57;;;;;;;2.80;2.60;;;;;;;;;;5091872;28;20032;-63
2023/05/06 08:36:22;;;;;;;4.90;2.30;;;;;;;;;;5092814;28;20031;-63
2023/05/06 08:38:49;;;;;;;2.60;2.40;;;;;;;;;;5091494;28;20044;-63
2023/05/06 08:41:18;;;;;;;2.10;2.00;;;;;;;;;;5092763;28;20044;-63
2023/05/06 08:43:45;;;;;;;3.20;2.10;;;;;;;;;;5093453;28;20488;-62
2023/05/06 08:46:12;;;;;;;3.22;2.50;;;;;;;;;;5093545;28;20032;-63
2023/05/06 08:48:38;;;;;;;4.57;2.17;;;;;;;;;;5091517;28;20036;-61
2023/05/06 08:51:04;;;;;;;2.40;2.20;;;;;;;;;;5093355;28;20125;-61
2023/05/06 08:53:32;;;;;;;10.07;2.42;;;;;;;;;;5092893;28;20081;-64
2023/05/06 08:56:03;;;;;;;3.20;2.42;;;;;;;;;;5092405;28;20032;-64
2023/05/06 08:58:32;;;;;;;4.25;2.35;;;;;;;;;;5091133;28;20024;-63
2023/05/06 09:00:58;;;;;;;5.07;2.25;;;;;;;;;;5091913;28;20032;-63
2023/05/06 09:03:24;;;;;;;2.35;2.15;;;;;;;;;;5092442;28;20103;-63
2023/05/06 09:05:50;;;;;;;2.55;2.35;;;;;;;;;;5092533;28;20081;-64
2023/05/06 09:08:15;;;;;;;2.67;2.22;;;;;;;;;;5091815;28;20516;-63
2023/05/06 09:10:45;;;;;;;3.83;2.20;;;;;;;;;;5092930;28;20028;-64
2023/05/06 09:13:16;;;;;;;2.77;2.40;;;;;;;;;;5093122;28;20364;-65
2023/05/06 09:15:43;;;;;;;4.65;2.83;;;;;;;;;;5092894;28;20035;-64
2023/05/06 09:18:10;;;;;;;2.72;2.28;;;;;;;;;;5092950;28;20024;-63
2023/05/06 09:20:41;;;;;;;2.60;2.40;;;;;;;;;;5093091;28;20353;-63
2023/05/06 09:23:08;;;;;;;2.20;2.10;;;;;;;;;;5092701;28;20106;-64
2023/05/06 09:25:35;;;;;;;5.85;2.38;;;;;;;;;;5093018;28;20046;-63
2023/05/06 09:28:05;;;;;;;2.30;2.13;;;;;;;;;;5092660;28;20035;-65
2023/05/06 09:30:30;;;;;;;6.72;2.53;;;;;;;;;;5092992;28;20031;-63
2023/05/06 09:32:56;;;;;;;3.20;2.47;;;;;;;;;;5092558;28;20027;-64
2023/05/06 09:35:27;;;;;;;2.30;2.10;;;;;;;;;;5091407;28;20035;-64
2023/05/06 09:37:53;;;;;;;2.25;2.10;;;;;;;;;;5092553;28;20471;-64
2023/05/06 09:40:18;;;;;;;2.00;1.90;;;;;;;;;;5091722;28;20028;-65
2023/05/06 09:42:44;;;;;;;2.15;2.05;;;;;;;;;;5092860;28;20472;-64
2023/05/06 09:45:10;;;;;;;3.40;2.20;;;;;;;;;;5091218;28;20444;-64
2023/05/06 09:47:36;;;;;;;2.35;2.10;;;;;;;;;;5092748;28;20031;-65
2023/05/06 09:50:03;;;;;;;2.13;1.92;;;;;;;;;;5092498;28;20024;-65
2023/05/06 09:52:29;;;;;;;2.17;2.08;;;;;;;;;;5092475;28;20383;-65
2023/05/06 09:54:56;;;;;;;2.20;2.10;;;;;;;;;;5092776;28;20376;-65
2023/05/06 09:57:22;;;;;;;2.72;2.30;;;;;;;;;;5092627;28;20437;-65
2023/05/06 09:59:51;;;;;;;2.50;2.30;;;;;;;;;;5092621;28;20096;-64
2023/05/06 10:02:18;;;;;;;2.53;2.33;;;;;;;;;;5092673;28;20039;-64
2023/05/06 10:04:44;;;;;;;2.60;2.40;;;;;;;;;;5087169;28;20048;-65
2023/05/06 10:07:14;;;;;;;2.20;2.10;;;;;;;;;;5072997;28;20543;-65
2023/05/06 10:09:40;;;;;;;2.43;2.23;;;;;;;;;;5072431;28;20055;-64
2023/05/06 10:12:09;;;;;;;2.20;2.00;;;;;;;;;;5088820;28;20483;-63
2023/05/06 10:14:36;;;;;;;2.17;1.98;;;;;;;;;;5092430;28;20357;-63
2023/05/06 10:17:07;;;;;;;2.20;2.00;;;;;;;;;;5092406;28;20361;-64
2023/05/06 10:19:33;;;;;;;2.30;2.10;;;;;;;;;;5092220;28;20095;-62
2023/05/06 10:22:32;;;;;;;2.00;1.90;;;;;;;;;;5092461;28;20386;-63
2023/05/06 10:25:04;;;;;;;2.27;2.17;;;;;;;;;;5092135;28;20039;-63
2023/05/06 10:27:34;;;;;;;2.03;1.92;;;;;;;;;;5092049;28;20540;-64
2023/05/06 10:30:00;;;;;;;;;;;;;;;;;;5092298;28;20028;-62
2023/05/06 10:32:30;;;;;;;2.00;1.90;;;;;;;;;;5092007;28;19922;-61
2023/05/06 10:35:00;;;;;;;2.40;2.20;;;;;;;;;;5092184;28;20056;-62
2023/05/06 10:37:28;;;;;;;2.30;2.10;;;;;;;;;;5091734;28;20044;-62
2023/05/06 10:39:55;;;;;;;2.50;2.30;;;;;;;;;;5092311;28;20020;-63
2023/05/06 10:42:27;;;;;;;2.35;2.15;;;;;;;;;;5091974;28;20020;-65
2023/05/06 10:45:02;;;;;;;2.70;2.17;;;;;;;;;;5091943;28;20025;-64
2023/05/06 10:47:54;;;;;;;2.40;2.20;;;;;;;;;;5092319;28;20032;-63
2023/05/06 10:50:24;;;;;;;2.13;1.92;;;;;;;;;;5091125;28;20020;-65
2023/05/06 10:52:54;;;;;;;2.08;1.90;;;;;;;;;;5093807;28;20036;-63
2023/05/06 10:55:32;;;;;;;2.22;2.10;;;;;;;;;;5091562;28;20518;-63
2023/05/06 10:58:10;;;;;;;2.20;2.00;;;;;;;;;;5094460;28;20028;-64
2023/05/06 11:00:36;;;;;;;2.20;2.00;;;;;;;;;;5094182;28;20024;-64
2023/05/06 11:03:06;;;;;;;2.17;2.03;;;;;;;;;;5094015;28;20107;-64
2023/05/06 11:05:45;;;;;;;2.17;2.03;;;;;;;;;;5094221;28;20501;-65
2023/05/06 11:08:12;;;;;;;2.10;2.00;;;;;;;;;;5092986;28;20043;-63
2023/05/06 11:10:37;;;;;;;2.05;1.92;;;;;;;;;;5094531;28;20036;-66
2023/05/06 11:13:25;;;;;;;2.20;2.00;;;;;;;;;;5095043;28;20036;-64
2023/05/06 11:15:52;;;;;;;2.40;2.20;;;;;;;;;;5080712;28;20036;-65
2023/05/06 11:18:26;;;;;;;2.28;2.13;;;;;;;;;;5092172;28;20490;-65
2023/05/06 11:21:01;;;;;;;3.00;2.80;;;;;;;;;;5092366;28;20039;-64
2023/05/06 11:23:51;;;;;;;3.35;2.15;;;;;;;;;;5091920;28;20116;-62
2023/05/06 11:26:17;;;;;;;2.10;1.90;;;;;;;;;;5074817;28;20032;-64
2023/05/06 11:28:48;;;;;;;9.35;2.05;;;;;;;;;;5074682;28;20101;-65
2023/05/06 11:31:14;;;;;;;2.22;1.88;;;;;;;;;;5074576;28;20472;-64
2023/05/06 11:33:48;;;;;;;2.00;1.90;;;;;;;;;;5074465;28;20028;-64
2023/05/06 11:36:16;;;;;;;6.55;2.00;;;;;;;;;;5074603;28;20036;-64
2023/05/06 11:38:51;;;;;;;2.00;1.85;;;;;;;;;;5074319;28;20064;-65
2023/05/06 11:41:18;;;;;;;2.35;2.15;;;;;;;;;;5075330;28;20028;-65
2023/05/06 11:43:48;;;;;;;4.10;2.45;;;;;;;;;;5092906;28;20027;-63
2023/05/06 11:46:14;;;;;;;2.85;2.08;;;;;;;;;;5094807;28;20069;-65
2023/05/06 11:48:42;;;;;;;3.25;2.20;;;;;;;;;;5094501;28;20422;-64
2023/05/06 11:51:07;;;;;;;3.47;2.15;;;;;;;;;;5094555;28;20152;-63
2023/05/06 11:53:33;;;;;;;4.93;2.55;;;;;;;;;;5094242;28;20065;-65
2023/05/06 11:55:59;;;;;;;2.92;2.33;;;;;;;;;;5094528;28;20031;-63
2023/05/06 11:58:28;;;;;;;2.95;2.20;;;;;;;;;;5094473;28;20051;-63
2023/05/06 12:01:01;;;;;;;6.30;2.50;;;;;;;;;;5094249;28;20028;-63
2023/05/06 12:03:28;;;;;;;4.18;2.03;;;;;;;;;;5094430;28;20027;-64
2023/05/06 12:05:55;;;;;;;2.25;2.05;;;;;;;;;;5094149;28;20103;-64
2023/05/06 12:08:24;;;;;;;7.97;2.53;;;;;;;;;;5092541;28;20032;-64
2023/05/06 12:10:59;;;;;;;9.27;2.55;;;;;;;;;;5087737;28;20039;-64
2023/05/06 12:13:26;;;;;;;6.85;2.50;;;;;;;;;;5093895;28;20080;-63
2023/05/06 12:15:54;;;;;;;5.88;2.30;;;;;;;;;;5093969;28;20028;-64
2023/05/06 12:18:20;;;;;;;4.35;2.40;;;;;;;;;;5093906;28;20022;-65
2023/05/06 12:20:46;;;;;;;4.90;2.15;;;;;;;;;;5094134;28;20032;-64
2023/05/06 12:23:13;;;;;;;2.45;2.25;;;;;;;;;;5093810;28;20077;-64
2023/05/06 12:25:40;;;;;;;3.35;2.20;;;;;;;;;;5092555;28;20501;-65
2023/05/06 12:28:18;;;;;;;3.47;2.33;;;;;;;;;;5094072;28;20149;-65
2023/05/06 12:30:45;;;;;;;3.47;2.03;;;;;;;;;;5083793;28;20035;-66
2023/05/06 12:33:11;;;;;;;2.38;2.03;;;;;;;;;;5073347;28;20055;-66
2023/05/06 12:35:38;;;;;;;2.05;1.85;;;;;;;;;;5073305;28;20033;-65
2023/05/06 12:38:11;;;;;;;2.78;2.22;;;;;;;;;;5073237;28;20060;-64
2023/05/06 12:40:37;;;;;;;2.47;2.25;;;;;;;;;;5073276;28;20031;-63
2023/05/06 12:43:03;;;;;;;4.68;2.10;;;;;;;;;;5073138;28;20145;-65
2023/05/06 12:45:29;;;;;;;2.50;2.28;;;;;;;;;;5073458;28;20033;-65
2023/05/06 12:47:57;;;;;;;3.58;2.05;;;;;;;;;;5073062;28;20020;-64
2023/05/06 12:50:37;;;;;;;5.78;3.00;;;;;;;;;;5073051;28;20430;-65
2023/05/06 12:53:04;;;;;;;6.63;4.10;;;;;;;;;;5073123;28;20028;-65
2023/05/06 12:55:31;;;;;;;27.70;9.18;;;;;;;;;;5072876;28;20430;-65
2023/05/06 12:57:57;;;;;;;10.93;5.20;;;;;;;;;;5072724;28;20040;-65
2023/05/06 13:00:23;;;;;;;12.70;6.13;;;;;;;;;;5072615;28;20024;-65
2023/05/06 13:02:48;;;;;;;16.20;6.90;;;;;;;;;;5072879;28;20028;-64
2023/05/06 13:05:14;;;;;;;17.15;6.97;;;;;;;;;;5071450;28;20393;-65
2023/05/06 13:07:42;;;;;;;10.00;5.05;;;;;;;;;;5072779;28;20029;-64
2023/05/06 13:10:08;;;;;;;12.38;5.53;;;;;;;;;;5072609;28;20039;-64
2023/05/06 13:12:34;;;;;;;10.38;4.43;;;;;;;;;;5072358;28;20105;-65
2023/05/06 13:15:00;;;;;;;13.68;5.03;;;;;;;;;;5072081;28;20027;-66
2023/05/06 13:17:26;;;;;;;8.10;5.18;;;;;;;;;;5072538;28;20025;-66
2023/05/06 13:19:53;;;;;;;8.77;4.80;;;;;;;;;;5072418;28;20021;-66
2023/05/06 13:22:19;;;;;;;8.30;4.95;;;;;;;;;;5072666;28;20104;-66
2023/05/06 13:24:45;;;;;;;8.25;5.15;;;;;;;;;;5072760;28;20078;-67
2023/05/06 13:27:10;;;;;;;11.20;5.70;;;;;;;;;;5072762;28;20388;-66
2023/05/06 13:29:36;;;;;;;9.27;5.32;;;;;;;;;;5072363;28;20423;-67
2023/05/06 13:32:02;;;;;;;12.45;5.95;;;;;;;;;;5072457;28;20027;-66
2023/05/06 13:34:28;;;;;;;13.73;6.03;;;;;;;;;;5072354;28;20507;-67
2023/05/06 13:36:55;;;;;;;9.05;5.45;;;;;;;;;;5072268;28;20032;-66
2023/05/06 13:39:22;;;;;;;11.38;5.13;;;;;;;;;;5072276;28;20043;-67
2023/05/06 13:41:48;;;;;;;11.57;5.22;;;;;;;;;;5072541;28;20032;-64
2023/05/06 13:44:17;;;;;;;10.90;5.35;;;;;;;;;;5072349;28;20025;-64
2023/05/06 13:46:42;;;;;;;12.82;5.25;;;;;;;;;;5072255;28;20036;-64
2023/05/06 13:49:08;;;;;;;8.82;5.25;;;;;;;;;;5072287;28;20024;-63
2023/05/06 13:51:33;;;;;;;10.20;5.00;;;;;;;;;;5072332;28;20025;-64
2023/05/06 13:54:00;;;;;;;12.20;6.00;;;;;;;;;;5071076;28;20024;-64
2023/05/06 13:56:25;;;;;;;11.30;5.57;;;;;;;;;;5072322;28;20028;-65
2023/05/06 13:58:52;;;;;;;10.63;5.85;;;;;;;;;;5072183;28;20051;-64
2023/05/06 14:01:19;;;;;;;12.88;6.10;;;;;;;;;;5072348;28;20094;-65
2023/05/06 14:03:45;;;;;;;11.38;5.80;;;;;;;;;;5072130;28;20464;-65
2023/05/06 14:06:10;;;;;;;51.17;27.85;;;;;;;;;;5087975;28;20028;-65
2023/05/06 14:08:36;;;;;;;46.63;21.50;;;;;;;;;;5092439;28;20401;-65
2023/05/06 14:11:01;;;;;;;36.78;19.80;;;;;;;;;;5092214;28;20027;-64
2023/05/06 14:13:29;;;;;;;29.52;14.30;;;;;;;;;;5092127;28;20063;-66
2023/05/06 14:15:55;;;;;;;49.83;26.58;;;;;;;;;;5092153;28;20608;-65
2023/05/06 14:18:21;;;;;;;48.15;26.17;;;;;;;;;;5092170;28;20024;-65
2023/05/06 14:20:46;;;;;;;43.47;24.25;;;;;;;;;;5092149;28;20021;-65
2023/05/06 14:23:12;;;;;;;46.25;26.30;;;;;;;;;;5091921;28;20028;-65
2023/05/06 14:25:37;;;;;;;27.58;15.23;;;;;;;;;;5091938;28;20038;-64
2023/05/06 14:28:03;;;;;;;34.72;20.30;;;;;;;;;;5094988;28;20038;-64
2023/05/06 14:30:29;;;;;;;37.88;20.73;;;;;;;;;;5095903;28;20392;-64
2023/05/06 14:32:55;;;;;;;28.48;16.50;;;;;;;;;;5095884;28;20024;-64
2023/05/06 14:35:21;;;;;;;23.33;15.63;;;;;;;;;;5095916;28;20032;-64
2023/05/06 14:37:46;;;;;;;21.20;13.98;;;;;;;;;;5095554;28;20044;-64
2023/05/06 14:40:12;;;;;;;16.30;9.57;;;;;;;;;;5095757;28;20027;-63